KCRW 190401Z 1904/1924 32010G25KT P6SM SCT050
TEMPO 1904/1907 -SHSN BKN050
FM191000 28009KT P6SM FEW250
From batch tds/tafs/production/2023/3/19/h04_m36_tafs.cache.xml
Issued (12 months ago)
Forecasts
1904/1910 32010G25KT P6SM SCT5000

---
fcst_time_to: '2023-03-19T10:00:00Z'
wind_gust_kt: '25'
sky_condition:
- sky_cover: SCT
  cloud_base_ft_agl: '5000'
wind_speed_kt: '10'
fcst_time_from: '2023-03-19T04:00:00Z'
wind_dir_degrees: '320'
visibility_statute_mi: '6.21'

TEMPO 1904/1907 BKN5000

---
wx_string: "-SHSN"
fcst_time_to: '2023-03-19T07:00:00Z'
sky_condition:
- sky_cover: BKN
  cloud_base_ft_agl: '5000'
fcst_time_from: '2023-03-19T04:00:00Z'
change_indicator: TEMPO

FM191000 28009KT P6SM FEW25000

---
fcst_time_to: '2023-03-20T00:00:00Z'
sky_condition:
- sky_cover: FEW
  cloud_base_ft_agl: '25000'
wind_speed_kt: '9'
fcst_time_from: '2023-03-19T10:00:00Z'
change_indicator: FM
wind_dir_degrees: '280'
visibility_statute_mi: '6.21'

talk